sensor_id;sensor_type;location;lat;lon;timestamp;P1;durP1;ratioP1;P2;durP2;ratioP2
51366;SDS011;37458;49.428;8.646;2022-12-05T00:00:53;33.27;;;18.30;;
51366;SDS011;37458;49.428;8.646;2022-12-05T00:03:19;32.40;;;17.43;;
51366;SDS011;37458;49.428;8.646;2022-12-05T00:05:45;33.37;;;18.03;;
51366;SDS011;37458;49.428;8.646;2022-12-05T00:08:11;32.90;;;17.40;;
51366;SDS011;37458;49.428;8.646;2022-12-05T00:10:38;34.10;;;18.20;;
51366;SDS011;37458;49.428;8.646;2022-12-05T00:13:04;33.07;;;18.23;;
51366;SDS011;37458;49.428;8.646;2022-12-05T00:15:30;34.47;;;17.77;;
51366;SDS011;37458;49.428;8.646;2022-12-05T00:17:56;34.37;;;18.93;;
51366;SDS011;37458;49.428;8.646;2022-12-05T00:20:22;43.23;;;19.87;;
51366;SDS011;37458;49.428;8.646;2022-12-05T00:22:48;44.00;;;18.90;;
51366;SDS011;37458;49.428;8.646;2022-12-05T00:25:14;43.00;;;20.20;;
51366;SDS011;37458;49.428;8.646;2022-12-05T00:27:40;41.83;;;21.47;;
51366;SDS011;37458;49.428;8.646;2022-12-05T00:30:06;42.00;;;19.87;;
51366;SDS011;37458;49.428;8.646;2022-12-05T00:32:32;42.90;;;20.30;;
51366;SDS011;37458;49.428;8.646;2022-12-05T00:34:58;39.33;;;20.23;;
51366;SDS011;37458;49.428;8.646;2022-12-05T00:37:24;43.17;;;21.23;;
51366;SDS011;37458;49.428;8.646;2022-12-05T00:39:50;39.73;;;19.83;;
51366;SDS011;37458;49.428;8.646;2022-12-05T00:42:16;38.07;;;19.43;;
51366;SDS011;37458;49.428;8.646;2022-12-05T00:44:42;39.70;;;19.53;;
51366;SDS011;37458;49.428;8.646;2022-12-05T00:47:08;41.00;;;19.13;;
51366;SDS011;37458;49.428;8.646;2022-12-05T00:49:34;49.93;;;22.33;;
51366;SDS011;37458;49.428;8.646;2022-12-05T00:52:00;41.87;;;18.70;;
51366;SDS011;37458;49.428;8.646;2022-12-05T00:54:26;44.77;;;20.50;;
51366;SDS011;37458;49.428;8.646;2022-12-05T00:56:52;66.87;;;27.33;;
51366;SDS011;37458;49.428;8.646;2022-12-05T00:59:20;58.37;;;25.63;;
51366;SDS011;37458;49.428;8.646;2022-12-05T01:01:46;51.47;;;24.27;;
51366;SDS011;37458;49.428;8.646;2022-12-05T01:04:14;47.23;;;21.97;;
51366;SDS011;37458;49.428;8.646;2022-12-05T01:06:41;58.33;;;26.27;;
51366;SDS011;37458;49.428;8.646;2022-12-05T01:09:07;54.43;;;22.80;;
51366;SDS011;37458;49.428;8.646;2022-12-05T01:11:33;36.20;;;18.73;;
51366;SDS011;37458;49.428;8.646;2022-12-05T01:13:59;44.60;;;20.17;;
51366;SDS011;37458;49.428;8.646;2022-12-05T01:16:32;36.13;;;17.70;;
51366;SDS011;37458;49.428;8.646;2022-12-05T01:18:59;35.23;;;17.77;;
51366;SDS011;37458;49.428;8.646;2022-12-05T01:21:26;38.70;;;18.67;;
51366;SDS011;37458;49.428;8.646;2022-12-05T01:23:52;44.27;;;21.30;;
51366;SDS011;37458;49.428;8.646;2022-12-05T01:26:18;36.30;;;19.40;;
51366;SDS011;37458;49.428;8.646;2022-12-05T01:28:45;44.27;;;21.27;;
51366;SDS011;37458;49.428;8.646;2022-12-05T01:31:15;40.00;;;19.73;;
51366;SDS011;37458;49.428;8.646;2022-12-05T01:33:43;45.03;;;21.00;;
51366;SDS011;37458;49.428;8.646;2022-12-05T01:36:09;40.67;;;19.40;;
51366;SDS011;37458;49.428;8.646;2022-12-05T01:38:39;46.03;;;20.33;;
51366;SDS011;37458;49.428;8.646;2022-12-05T01:41:05;41.07;;;19.07;;
51366;SDS011;37458;49.428;8.646;2022-12-05T01:43:32;47.33;;;19.33;;
51366;SDS011;37458;49.428;8.646;2022-12-05T01:45:58;40.23;;;20.63;;
51366;SDS011;37458;49.428;8.646;2022-12-05T01:48:25;40.27;;;19.10;;
51366;SDS011;37458;49.428;8.646;2022-12-05T01:50:52;43.60;;;21.33;;
51366;SDS011;37458;49.428;8.646;2022-12-05T01:53:18;47.53;;;20.90;;
51366;SDS011;37458;49.428;8.646;2022-12-05T01:55:45;45.33;;;21.27;;
51366;SDS011;37458;49.428;8.646;2022-12-05T01:58:12;44.17;;;20.83;;
51366;SDS011;37458;49.428;8.646;2022-12-05T02:00:38;50.03;;;21.43;;
51366;SDS011;37458;49.428;8.646;2022-12-05T02:03:05;44.60;;;20.40;;
51366;SDS011;37458;49.428;8.646;2022-12-05T02:05:33;48.50;;;21.30;;
51366;SDS011;37458;49.428;8.646;2022-12-05T02:08:02;45.27;;;21.60;;
51366;SDS011;37458;49.428;8.646;2022-12-05T02:10:29;47.70;;;21.43;;
51366;SDS011;37458;49.428;8.646;2022-12-05T02:12:58;58.07;;;22.40;;
51366;SDS011;37458;49.428;8.646;2022-12-05T02:15:47;50.90;;;20.50;;
51366;SDS011;37458;49.428;8.646;2022-12-05T02:18:24;45.50;;;20.37;;
51366;SDS011;37458;49.428;8.646;2022-12-05T02:23:26;48.57;;;23.10;;
51366;SDS011;37458;49.428;8.646;2022-12-05T02:28:59;55.17;;;21.20;;
51366;SDS011;37458;49.428;8.646;2022-12-05T02:36:48;61.20;;;21.47;;
51366;SDS011;37458;49.428;8.646;2022-12-05T02:42:14;69.13;;;21.80;;
51366;SDS011;37458;49.428;8.646;2022-12-05T02:44:48;58.20;;;20.27;;
51366;SDS011;37458;49.428;8.646;2022-12-05T02:47:16;55.17;;;22.63;;
51366;SDS011;37458;49.428;8.646;2022-12-05T02:49:43;50.93;;;20.70;;
51366;SDS011;37458;49.428;8.646;2022-12-05T02:52:11;58.63;;;22.00;;
51366;SDS011;37458;49.428;8.646;2022-12-05T02:54:38;49.57;;;20.83;;
51366;SDS011;37458;49.428;8.646;2022-12-05T02:57:05;50.30;;;20.77;;
51366;SDS011;37458;49.428;8.646;2022-12-05T02:59:32;44.67;;;21.20;;
51366;SDS011;37458;49.428;8.646;2022-12-05T03:01:58;48.33;;;21.33;;
51366;SDS011;37458;49.428;8.646;2022-12-05T03:04:24;41.53;;;19.33;;
51366;SDS011;37458;49.428;8.646;2022-12-05T03:06:55;41.00;;;16.83;;
51366;SDS011;37458;49.428;8.646;2022-12-05T03:09:24;36.83;;;16.83;;
51366;SDS011;37458;49.428;8.646;2022-12-05T03:11:53;39.93;;;17.87;;
51366;SDS011;37458;49.428;8.646;2022-12-05T03:14:28;42.50;;;16.80;;
51366;SDS011;37458;49.428;8.646;2022-12-05T03:17:00;36.80;;;18.13;;
51366;SDS011;37458;49.428;8.646;2022-12-05T03:19:29;44.60;;;19.43;;
51366;SDS011;37458;49.428;8.646;2022-12-05T03:22:01;45.13;;;20.00;;
51366;SDS011;37458;49.428;8.646;2022-12-05T03:24:28;44.17;;;19.37;;
51366;SDS011;37458;49.428;8.646;2022-12-05T03:29:34;50.00;;;19.33;;
51366;SDS011;37458;49.428;8.646;2022-12-05T03:32:06;44.13;;;17.50;;
51366;SDS011;37458;49.428;8.646;2022-12-05T03:36:59;36.53;;;16.37;;
51366;SDS011;37458;49.428;8.646;2022-12-05T03:39:28;53.40;;;19.40;;
51366;SDS011;37458;49.428;8.646;2022-12-05T03:41:57;48.40;;;19.17;;
51366;SDS011;37458;49.428;8.646;2022-12-05T03:44:30;42.70;;;19.93;;
51366;SDS011;37458;49.428;8.646;2022-12-05T03:47:09;42.40;;;18.53;;
51366;SDS011;37458;49.428;8.646;2022-12-05T03:49:40;38.17;;;17.73;;
51366;SDS011;37458;49.428;8.646;2022-12-05T03:54:53;52.87;;;19.13;;
51366;SDS011;37458;49.428;8.646;2022-12-05T03:57:26;51.10;;;20.63;;
51366;SDS011;37458;49.428;8.646;2022-12-05T03:59:56;50.93;;;20.40;;
51366;SDS011;37458;49.428;8.646;2022-12-05T04:02:25;45.87;;;19.27;;
51366;SDS011;37458;49.428;8.646;2022-12-05T04:04:57;48.20;;;20.43;;
51366;SDS011;37458;49.428;8.646;2022-12-05T04:07:27;45.30;;;20.07;;
51366;SDS011;37458;49.428;8.646;2022-12-05T04:09:55;41.70;;;17.17;;
51366;SDS011;37458;49.428;8.646;2022-12-05T04:12:22;42.53;;;17.07;;
51366;SDS011;37458;49.428;8.646;2022-12-05T04:14:50;39.53;;;17.43;;
51366;SDS011;37458;49.428;8.646;2022-12-05T04:20:03;34.53;;;14.37;;
51366;SDS011;37458;49.428;8.646;2022-12-05T04:22:49;36.77;;;15.53;;
51366;SDS011;37458;49.428;8.646;2022-12-05T04:25:15;32.27;;;16.07;;
51366;SDS011;37458;49.428;8.646;2022-12-05T04:28:13;38.23;;;16.90;;
51366;SDS011;37458;49.428;8.646;2022-12-05T04:30:49;38.43;;;15.70;;
51366;SDS011;37458;49.428;8.646;2022-12-05T04:33:29;35.73;;;16.73;;
51366;SDS011;37458;49.428;8.646;2022-12-05T04:36:11;36.23;;;16.97;;
51366;SDS011;37458;49.428;8.646;2022-12-05T04:38:42;31.70;;;15.03;;
51366;SDS011;37458;49.428;8.646;2022-12-05T04:41:25;37.87;;;16.40;;
51366;SDS011;37458;49.428;8.646;2022-12-05T04:43:51;35.67;;;16.30;;
51366;SDS011;37458;49.428;8.646;2022-12-05T04:46:18;32.67;;;15.53;;
51366;SDS011;37458;49.428;8.646;2022-12-05T04:48:47;32.30;;;15.73;;
51366;SDS011;37458;49.428;8.646;2022-12-05T04:51:16;31.80;;;15.00;;
51366;SDS011;37458;49.428;8.646;2022-12-05T04:53:43;33.27;;;14.63;;
51366;SDS011;37458;49.428;8.646;2022-12-05T04:56:09;29.77;;;14.87;;
51366;SDS011;37458;49.428;8.646;2022-12-05T04:58:37;29.70;;;14.23;;
51366;SDS011;37458;49.428;8.646;2022-12-05T05:01:21;27.77;;;13.97;;
51366;SDS011;37458;49.428;8.646;2022-12-05T05:04:01;26.40;;;13.43;;
51366;SDS011;37458;49.428;8.646;2022-12-05T05:06:30;29.90;;;14.20;;
51366;SDS011;37458;49.428;8.646;2022-12-05T05:08:56;25.93;;;14.83;;
51366;SDS011;37458;49.428;8.646;2022-12-05T05:11:26;28.70;;;14.43;;
51366;SDS011;37458;49.428;8.646;2022-12-05T05:13:53;25.20;;;13.03;;
51366;SDS011;37458;49.428;8.646;2022-12-05T05:16:23;26.93;;;14.40;;
51366;SDS011;37458;49.428;8.646;2022-12-05T05:18:50;28.10;;;13.60;;
51366;SDS011;37458;49.428;8.646;2022-12-05T05:23:42;29.53;;;14.63;;
51366;SDS011;37458;49.428;8.646;2022-12-05T05:26:08;28.40;;;14.67;;
51366;SDS011;37458;49.428;8.646;2022-12-05T05:28:34;27.03;;;14.47;;
51366;SDS011;37458;49.428;8.646;2022-12-05T05:31:03;26.30;;;13.80;;
51366;SDS011;37458;49.428;8.646;2022-12-05T05:33:30;27.50;;;12.97;;
51366;SDS011;37458;49.428;8.646;2022-12-05T05:35:56;29.50;;;14.07;;
51366;SDS011;37458;49.428;8.646;2022-12-05T05:38:21;25.20;;;13.40;;
51366;SDS011;37458;49.428;8.646;2022-12-05T05:40:47;26.70;;;13.87;;
51366;SDS011;37458;49.428;8.646;2022-12-05T05:43:13;25.53;;;12.53;;
51366;SDS011;37458;49.428;8.646;2022-12-05T05:45:39;33.10;;;15.00;;
51366;SDS011;37458;49.428;8.646;2022-12-05T05:48:05;28.00;;;12.83;;
51366;SDS011;37458;49.428;8.646;2022-12-05T05:50:31;31.83;;;14.27;;
51366;SDS011;37458;49.428;8.646;2022-12-05T05:52:57;31.97;;;14.57;;
51366;SDS011;37458;49.428;8.646;2022-12-05T05:55:23;29.37;;;14.27;;
51366;SDS011;37458;49.428;8.646;2022-12-05T05:57:49;29.23;;;14.20;;
51366;SDS011;37458;49.428;8.646;2022-12-05T06:00:15;35.33;;;16.00;;
51366;SDS011;37458;49.428;8.646;2022-12-05T06:02:41;31.07;;;14.63;;
51366;SDS011;37458;49.428;8.646;2022-12-05T06:05:07;32.90;;;14.70;;
51366;SDS011;37458;49.428;8.646;2022-12-05T06:07:33;33.37;;;13.83;;
51366;SDS011;37458;49.428;8.646;2022-12-05T06:09:59;36.87;;;14.93;;
51366;SDS011;37458;49.428;8.646;2022-12-05T06:12:25;31.37;;;14.43;;
51366;SDS011;37458;49.428;8.646;2022-12-05T06:14:51;31.17;;;15.30;;
51366;SDS011;37458;49.428;8.646;2022-12-05T06:17:17;31.47;;;14.70;;
51366;SDS011;37458;49.428;8.646;2022-12-05T06:19:43;32.60;;;15.03;;
51366;SDS011;37458;49.428;8.646;2022-12-05T06:22:09;34.13;;;15.60;;
51366;SDS011;37458;49.428;8.646;2022-12-05T06:24:35;29.90;;;14.33;;
51366;SDS011;37458;49.428;8.646;2022-12-05T06:27:01;28.83;;;13.47;;
51366;SDS011;37458;49.428;8.646;2022-12-05T06:29:27;32.93;;;14.97;;
51366;SDS011;37458;49.428;8.646;2022-12-05T06:31:53;31.60;;;14.57;;
51366;SDS011;37458;49.428;8.646;2022-12-05T06:34:19;36.70;;;14.87;;
51366;SDS011;37458;49.428;8.646;2022-12-05T06:36:45;34.13;;;14.73;;
51366;SDS011;37458;49.428;8.646;2022-12-05T06:39:11;28.47;;;14.20;;
51366;SDS011;37458;49.428;8.646;2022-12-05T06:41:37;33.00;;;15.30;;
51366;SDS011;37458;49.428;8.646;2022-12-05T06:44:03;31.93;;;16.40;;
51366;SDS011;37458;49.428;8.646;2022-12-05T06:46:29;37.87;;;15.23;;
51366;SDS011;37458;49.428;8.646;2022-12-05T06:48:56;33.23;;;14.87;;
51366;SDS011;37458;49.428;8.646;2022-12-05T06:51:22;30.90;;;14.53;;
51366;SDS011;37458;49.428;8.646;2022-12-05T06:53:49;30.03;;;15.43;;
51366;SDS011;37458;49.428;8.646;2022-12-05T06:56:16;33.17;;;13.83;;
51366;SDS011;37458;49.428;8.646;2022-12-05T06:58:44;30.10;;;14.10;;
51366;SDS011;37458;49.428;8.646;2022-12-05T07:01:14;30.60;;;14.87;;
51366;SDS011;37458;49.428;8.646;2022-12-05T07:03:59;28.30;;;13.03;;
51366;SDS011;37458;49.428;8.646;2022-12-05T07:06:26;27.43;;;13.50;;
51366;SDS011;37458;49.428;8.646;2022-12-05T07:08:52;29.27;;;13.00;;
51366;SDS011;37458;49.428;8.646;2022-12-05T07:11:18;31.77;;;15.17;;
51366;SDS011;37458;49.428;8.646;2022-12-05T07:13:44;30.00;;;13.97;;
51366;SDS011;37458;49.428;8.646;2022-12-05T07:16:10;27.60;;;13.87;;
51366;SDS011;37458;49.428;8.646;2022-12-05T07:18:36;27.17;;;13.97;;
51366;SDS011;37458;49.428;8.646;2022-12-05T07:21:04;30.57;;;13.60;;
51366;SDS011;37458;49.428;8.646;2022-12-05T07:23:31;28.43;;;16.13;;
51366;SDS011;37458;49.428;8.646;2022-12-05T07:25:57;29.67;;;15.33;;
51366;SDS011;37458;49.428;8.646;2022-12-05T07:28:23;29.43;;;14.43;;
51366;SDS011;37458;49.428;8.646;2022-12-05T07:31:00;28.83;;;14.03;;
51366;SDS011;37458;49.428;8.646;2022-12-05T07:33:26;31.80;;;14.67;;
51366;SDS011;37458;49.428;8.646;2022-12-05T07:35:52;28.80;;;15.10;;
51366;SDS011;37458;49.428;8.646;2022-12-05T07:38:18;28.27;;;13.73;;
51366;SDS011;37458;49.428;8.646;2022-12-05T07:40:44;32.87;;;15.20;;
51366;SDS011;37458;49.428;8.646;2022-12-05T07:43:10;28.37;;;15.20;;
51366;SDS011;37458;49.428;8.646;2022-12-05T07:45:36;36.17;;;19.25;;
51366;SDS011;37458;49.428;8.646;2022-12-05T07:48:02;31.87;;;17.03;;
51366;SDS011;37458;49.428;8.646;2022-12-05T07:50:28;28.53;;;14.83;;
51366;SDS011;37458;49.428;8.646;2022-12-05T07:52:54;31.07;;;15.33;;
51366;SDS011;37458;49.428;8.646;2022-12-05T07:55:20;26.17;;;15.10;;
51366;SDS011;37458;49.428;8.646;2022-12-05T07:57:45;27.67;;;14.57;;
51366;SDS011;37458;49.428;8.646;2022-12-05T08:00:12;25.93;;;14.13;;
51366;SDS011;37458;49.428;8.646;2022-12-05T08:02:38;26.00;;;13.93;;
51366;SDS011;37458;49.428;8.646;2022-12-05T08:05:04;26.33;;;13.97;;
51366;SDS011;37458;49.428;8.646;2022-12-05T08:07:30;25.77;;;15.27;;
51366;SDS011;37458;49.428;8.646;2022-12-05T08:09:56;30.07;;;14.63;;
51366;SDS011;37458;49.428;8.646;2022-12-05T08:12:22;25.90;;;14.40;;
51366;SDS011;37458;49.428;8.646;2022-12-05T08:14:48;29.80;;;15.90;;
51366;SDS011;37458;49.428;8.646;2022-12-05T08:17:14;26.67;;;13.77;;
51366;SDS011;37458;49.428;8.646;2022-12-05T08:19:40;27.17;;;14.90;;
51366;SDS011;37458;49.428;8.646;2022-12-05T08:22:06;25.40;;;13.73;;
51366;SDS011;37458;49.428;8.646;2022-12-05T08:24:32;28.10;;;14.47;;
51366;SDS011;37458;49.428;8.646;2022-12-05T08:26:58;28.13;;;14.87;;
51366;SDS011;37458;49.428;8.646;2022-12-05T08:29:24;31.17;;;17.10;;
51366;SDS011;37458;49.428;8.646;2022-12-05T08:31:50;26.30;;;14.33;;
51366;SDS011;37458;49.428;8.646;2022-12-05T08:34:17;25.40;;;14.83;;
51366;SDS011;37458;49.428;8.646;2022-12-05T08:36:43;25.07;;;13.37;;
51366;SDS011;37458;49.428;8.646;2022-12-05T08:39:10;29.07;;;14.67;;
51366;SDS011;37458;49.428;8.646;2022-12-05T08:41:38;24.60;;;13.83;;
51366;SDS011;37458;49.428;8.646;2022-12-05T08:44:05;21.80;;;13.33;;
51366;SDS011;37458;49.428;8.646;2022-12-05T08:46:32;25.30;;;13.77;;
51366;SDS011;37458;49.428;8.646;2022-12-05T08:48:59;22.17;;;13.20;;
51366;SDS011;37458;49.428;8.646;2022-12-05T08:51:25;21.97;;;13.23;;
51366;SDS011;37458;49.428;8.646;2022-12-05T08:53:51;21.00;;;12.47;;
51366;SDS011;37458;49.428;8.646;2022-12-05T08:56:17;19.53;;;12.67;;
51366;SDS011;37458;49.428;8.646;2022-12-05T08:58:43;22.87;;;12.60;;
51366;SDS011;37458;49.428;8.646;2022-12-05T09:01:13;19.23;;;11.63;;
51366;SDS011;37458;49.428;8.646;2022-12-05T09:03:40;20.63;;;12.97;;
51366;SDS011;37458;49.428;8.646;2022-12-05T09:06:10;20.20;;;11.67;;
51366;SDS011;37458;49.428;8.646;2022-12-05T09:08:37;20.20;;;12.67;;
51366;SDS011;37458;49.428;8.646;2022-12-05T09:11:07;22.80;;;12.87;;
51366;SDS011;37458;49.428;8.646;2022-12-05T09:13:33;19.87;;;12.53;;
51366;SDS011;37458;49.428;8.646;2022-12-05T09:16:03;18.37;;;11.63;;
51366;SDS011;37458;49.428;8.646;2022-12-05T09:18:29;25.60;;;12.90;;
51366;SDS011;37458;49.428;8.646;2022-12-05T09:20:55;20.53;;;12.00;;
51366;SDS011;37458;49.428;8.646;2022-12-05T09:23:21;18.43;;;12.27;;
51366;SDS011;37458;49.428;8.646;2022-12-05T09:25:53;20.87;;;12.87;;
51366;SDS011;37458;49.428;8.646;2022-12-05T09:28:22;18.47;;;12.73;;
51366;SDS011;37458;49.428;8.646;2022-12-05T09:30:58;18.43;;;12.47;;
51366;SDS011;37458;49.428;8.646;2022-12-05T09:33:25;18.47;;;11.97;;
51366;SDS011;37458;49.428;8.646;2022-12-05T09:35:51;22.70;;;11.93;;
51366;SDS011;37458;49.428;8.646;2022-12-05T09:38:17;19.10;;;12.43;;
51366;SDS011;37458;49.428;8.646;2022-12-05T09:40:43;18.83;;;12.33;;
51366;SDS011;37458;49.428;8.646;2022-12-05T09:43:20;19.57;;;12.67;;
51366;SDS011;37458;49.428;8.646;2022-12-05T09:45:53;21.33;;;11.60;;
51366;SDS011;37458;49.428;8.646;2022-12-05T09:48:24;18.40;;;12.93;;
51366;SDS011;37458;49.428;8.646;2022-12-05T09:50:58;19.30;;;11.90;;
51366;SDS011;37458;49.428;8.646;2022-12-05T09:53:35;17.60;;;11.17;;
51366;SDS011;37458;49.428;8.646;2022-12-05T09:56:11;17.23;;;11.70;;
51366;SDS011;37458;49.428;8.646;2022-12-05T09:58:42;19.13;;;11.80;;
51366;SDS011;37458;49.428;8.646;2022-12-05T10:06:36;16.07;;;11.10;;
51366;SDS011;37458;49.428;8.646;2022-12-05T10:09:09;20.83;;;11.80;;
51366;SDS011;37458;49.428;8.646;2022-12-05T10:11:45;23.57;;;11.97;;
51366;SDS011;37458;49.428;8.646;2022-12-05T10:14:28;20.93;;;12.53;;
51366;SDS011;37458;49.428;8.646;2022-12-05T10:16:57;20.63;;;12.97;;
51366;SDS011;37458;49.428;8.646;2022-12-05T10:19:34;20.33;;;12.37;;
51366;SDS011;37458;49.428;8.646;2022-12-05T10:22:24;20.47;;;12.10;;
51366;SDS011;37458;49.428;8.646;2022-12-05T10:24:52;20.50;;;13.57;;
51366;SDS011;37458;49.428;8.646;2022-12-05T10:27:20;24.70;;;16.63;;
51366;SDS011;37458;49.428;8.646;2022-12-05T10:29:50;21.87;;;13.50;;
51366;SDS011;37458;49.428;8.646;2022-12-05T10:32:19;21.47;;;13.23;;
51366;SDS011;37458;49.428;8.646;2022-12-05T10:34:47;16.77;;;12.30;;
51366;SDS011;37458;49.428;8.646;2022-12-05T10:37:21;21.33;;;13.17;;
51366;SDS011;37458;49.428;8.646;2022-12-05T10:39:48;20.87;;;12.73;;
51366;SDS011;37458;49.428;8.646;2022-12-05T10:42:18;20.70;;;13.30;;
51366;SDS011;37458;49.428;8.646;2022-12-05T10:44:45;18.87;;;11.77;;
51366;SDS011;37458;49.428;8.646;2022-12-05T10:47:11;23.17;;;12.90;;
51366;SDS011;37458;49.428;8.646;2022-12-05T10:49:37;25.23;;;14.10;;
51366;SDS011;37458;49.428;8.646;2022-12-05T10:52:03;20.97;;;13.10;;
51366;SDS011;37458;49.428;8.646;2022-12-05T10:54:30;21.23;;;12.20;;
51366;SDS011;37458;49.428;8.646;2022-12-05T10:56:58;20.87;;;13.50;;
51366;SDS011;37458;49.428;8.646;2022-12-05T10:59:25;19.33;;;13.40;;
51366;SDS011;37458;49.428;8.646;2022-12-05T11:01:55;20.00;;;11.70;;
51366;SDS011;37458;49.428;8.646;2022-12-05T11:04:26;18.87;;;12.60;;
51366;SDS011;37458;49.428;8.646;2022-12-05T11:07:01;18.57;;;11.57;;
51366;SDS011;37458;49.428;8.646;2022-12-05T11:09:30;22.37;;;12.40;;
51366;SDS011;37458;49.428;8.646;2022-12-05T11:12:02;19.27;;;12.40;;
51366;SDS011;37458;49.428;8.646;2022-12-05T11:14:28;18.80;;;12.53;;
51366;SDS011;37458;49.428;8.646;2022-12-05T11:16:56;19.87;;;12.43;;
51366;SDS011;37458;49.428;8.646;2022-12-05T11:21:48;20.17;;;13.30;;
51366;SDS011;37458;49.428;8.646;2022-12-05T11:24:28;21.27;;;11.67;;
51366;SDS011;37458;49.428;8.646;2022-12-05T11:27:40;17.97;;;12.07;;
51366;SDS011;37458;49.428;8.646;2022-12-05T11:29:41;17.87;;;11.30;;
51366;SDS011;37458;49.428;8.646;2022-12-05T11:32:18;17.93;;;11.97;;
51366;SDS011;37458;49.428;8.646;2022-12-05T11:34:46;21.07;;;11.23;;
51366;SDS011;37458;49.428;8.646;2022-12-05T11:37:25;15.87;;;11.63;;
51366;SDS011;37458;49.428;8.646;2022-12-05T11:39:53;19.67;;;11.63;;
51366;SDS011;37458;49.428;8.646;2022-12-05T11:42:31;17.13;;;11.80;;
51366;SDS011;37458;49.428;8.646;2022-12-05T11:48:02;20.70;;;13.10;;
51366;SDS011;37458;49.428;8.646;2022-12-05T11:50:38;19.30;;;12.67;;
51366;SDS011;37458;49.428;8.646;2022-12-05T11:53:20;17.73;;;11.67;;
51366;SDS011;37458;49.428;8.646;2022-12-05T11:55:50;17.47;;;11.60;;
51366;SDS011;37458;49.428;8.646;2022-12-05T12:03:37;17.37;;;11.30;;
51366;SDS011;37458;49.428;8.646;2022-12-05T12:19:07;33.93;;;15.53;;
51366;SDS011;37458;49.428;8.646;2022-12-05T12:21:53;22.73;;;13.47;;
51366;SDS011;37458;49.428;8.646;2022-12-05T12:24:48;18.87;;;11.57;;
51366;SDS011;37458;49.428;8.646;2022-12-05T12:27:13;18.63;;;12.17;;
51366;SDS011;37458;49.428;8.646;2022-12-05T12:32:25;19.33;;;12.83;;
51366;SDS011;37458;49.428;8.646;2022-12-05T12:45:30;21.70;;;12.30;;
51366;SDS011;37458;49.428;8.646;2022-12-05T12:50:52;19.93;;;12.60;;
51366;SDS011;37458;49.428;8.646;2022-12-05T12:56:01;18.40;;;12.60;;
51366;SDS011;37458;49.428;8.646;2022-12-05T13:06:30;16.63;;;12.10;;
51366;SDS011;37458;49.428;8.646;2022-12-05T13:09:05;18.27;;;12.13;;
51366;SDS011;37458;49.428;8.646;2022-12-05T13:11:34;14.47;;;10.87;;
51366;SDS011;37458;49.428;8.646;2022-12-05T13:14:01;17.63;;;11.50;;
51366;SDS011;37458;49.428;8.646;2022-12-05T13:16:31;18.80;;;11.07;;
51366;SDS011;37458;49.428;8.646;2022-12-05T13:18:58;17.07;;;10.80;;
51366;SDS011;37458;49.428;8.646;2022-12-05T13:21:25;18.27;;;11.80;;
51366;SDS011;37458;49.428;8.646;2022-12-05T13:23:52;16.03;;;10.30;;
51366;SDS011;37458;49.428;8.646;2022-12-05T13:26:27;17.40;;;11.23;;
51366;SDS011;37458;49.428;8.646;2022-12-05T13:28:55;14.97;;;10.03;;
51366;SDS011;37458;49.428;8.646;2022-12-05T13:31:35;17.93;;;11.10;;
51366;SDS011;37458;49.428;8.646;2022-12-05T13:34:02;17.10;;;11.37;;
51366;SDS011;37458;49.428;8.646;2022-12-05T13:36:29;22.97;;;11.13;;
51366;SDS011;37458;49.428;8.646;2022-12-05T13:39:21;19.77;;;11.73;;
51366;SDS011;37458;49.428;8.646;2022-12-05T13:42:17;16.60;;;11.17;;
51366;SDS011;37458;49.428;8.646;2022-12-05T13:47:22;18.53;;;12.03;;
51366;SDS011;37458;49.428;8.646;2022-12-05T13:49:59;25.90;;;12.87;;
51366;SDS011;37458;49.428;8.646;2022-12-05T13:52:30;20.03;;;12.50;;
51366;SDS011;37458;49.428;8.646;2022-12-05T13:55:01;17.47;;;11.13;;
51366;SDS011;37458;49.428;8.646;2022-12-05T13:57:43;17.77;;;11.60;;
51366;SDS011;37458;49.428;8.646;2022-12-05T14:07:44;11.87;;;8.20;;
51366;SDS011;37458;49.428;8.646;2022-12-05T14:10:21;12.00;;;8.27;;
51366;SDS011;37458;49.428;8.646;2022-12-05T14:15:23;9.97;;;7.67;;
51366;SDS011;37458;49.428;8.646;2022-12-05T14:17:54;11.13;;;7.80;;
51366;SDS011;37458;49.428;8.646;2022-12-05T14:23:01;11.67;;;7.10;;
51366;SDS011;37458;49.428;8.646;2022-12-05T14:26:19;10.30;;;7.17;;
51366;SDS011;37458;49.428;8.646;2022-12-05T14:33:28;9.80;;;5.93;;
51366;SDS011;37458;49.428;8.646;2022-12-05T14:35:54;8.33;;;4.80;;
51366;SDS011;37458;49.428;8.646;2022-12-05T14:38:30;6.20;;;4.37;;
51366;SDS011;37458;49.428;8.646;2022-12-05T14:41:09;5.67;;;4.20;;
51366;SDS011;37458;49.428;8.646;2022-12-05T14:43:36;3.53;;;3.17;;
51366;SDS011;37458;49.428;8.646;2022-12-05T14:46:06;3.87;;;3.47;;
51366;SDS011;37458;49.428;8.646;2022-12-05T14:48:40;2.90;;;2.50;;
51366;SDS011;37458;49.428;8.646;2022-12-05T14:54:01;5.83;;;2.47;;
51366;SDS011;37458;49.428;8.646;2022-12-05T14:56:28;2.77;;;2.40;;
51366;SDS011;37458;49.428;8.646;2022-12-05T15:04:07;4.50;;;3.20;;
51366;SDS011;37458;49.428;8.646;2022-12-05T15:06:36;3.30;;;2.90;;
51366;SDS011;37458;49.428;8.646;2022-12-05T15:09:09;3.47;;;2.63;;
51366;SDS011;37458;49.428;8.646;2022-12-05T15:11:47;4.10;;;2.87;;
51366;SDS011;37458;49.428;8.646;2022-12-05T15:14:17;3.93;;;3.10;;
51366;SDS011;37458;49.428;8.646;2022-12-05T15:16:45;4.10;;;3.13;;
51366;SDS011;37458;49.428;8.646;2022-12-05T15:19:19;3.27;;;2.70;;
51366;SDS011;37458;49.428;8.646;2022-12-05T15:21:48;4.13;;;3.10;;
51366;SDS011;37458;49.428;8.646;2022-12-05T15:24:16;3.27;;;2.60;;
51366;SDS011;37458;49.428;8.646;2022-12-05T15:26:44;3.80;;;2.90;;
51366;SDS011;37458;49.428;8.646;2022-12-05T15:31:48;3.75;;;2.83;;
51366;SDS011;37458;49.428;8.646;2022-12-05T15:34:16;6.27;;;3.57;;
51366;SDS011;37458;49.428;8.646;2022-12-05T15:36:48;3.23;;;2.50;;
51366;SDS011;37458;49.428;8.646;2022-12-05T15:39:22;4.33;;;3.27;;
51366;SDS011;37458;49.428;8.646;2022-12-05T15:41:50;6.17;;;3.07;;
51366;SDS011;37458;49.428;8.646;2022-12-05T15:44:16;4.20;;;3.50;;
51366;SDS011;37458;49.428;8.646;2022-12-05T15:46:43;6.53;;;3.90;;
51366;SDS011;37458;49.428;8.646;2022-12-05T15:49:16;6.75;;;4.05;;
51366;SDS011;37458;49.428;8.646;2022-12-05T15:51:43;11.60;;;7.00;;
51366;SDS011;37458;49.428;8.646;2022-12-05T15:54:12;7.73;;;4.50;;
51366;SDS011;37458;49.428;8.646;2022-12-05T15:56:40;5.60;;;4.10;;
51366;SDS011;37458;49.428;8.646;2022-12-05T15:59:21;3.10;;;2.77;;
51366;SDS011;37458;49.428;8.646;2022-12-05T16:01:50;3.65;;;2.55;;
51366;SDS011;37458;49.428;8.646;2022-12-05T16:04:36;2.67;;;2.37;;
51366;SDS011;37458;49.428;8.646;2022-12-05T16:07:07;3.47;;;2.50;;
51366;SDS011;37458;49.428;8.646;2022-12-05T16:09:37;2.40;;;2.20;;
51366;SDS011;37458;49.428;8.646;2022-12-05T16:12:04;3.13;;;2.80;;
51366;SDS011;37458;49.428;8.646;2022-12-05T16:14:36;3.10;;;2.77;;
51366;SDS011;37458;49.428;8.646;2022-12-05T16:17:03;2.40;;;2.20;;
51366;SDS011;37458;49.428;8.646;2022-12-05T16:19:30;4.07;;;2.40;;
51366;SDS011;37458;49.428;8.646;2022-12-05T16:24:38;3.03;;;2.60;;
51366;SDS011;37458;49.428;8.646;2022-12-05T16:27:12;3.43;;;2.53;;
51366;SDS011;37458;49.428;8.646;2022-12-05T16:29:38;2.47;;;2.27;;
51366;SDS011;37458;49.428;8.646;2022-12-05T16:34:42;3.07;;;2.53;;
51366;SDS011;37458;49.428;8.646;2022-12-05T16:37:16;2.97;;;2.30;;